createdAt,value
2023-02-03T00:02:39.461Z,7.30
2023-02-03T00:05:32.641Z,9.00
2023-02-03T00:08:25.873Z,9.00
2023-02-03T00:11:18.965Z,5.90
2023-02-03T00:14:11.975Z,4.50
2023-02-03T00:17:05.278Z,7.50
2023-02-03T00:19:58.377Z,6.00
2023-02-03T00:22:51.459Z,7.70
2023-02-03T00:25:44.529Z,9.00
2023-02-03T00:28:37.622Z,5.30
2023-02-03T00:31:30.922Z,4.80
2023-02-03T00:34:24.466Z,7.00
2023-02-03T00:37:17.870Z,5.80
2023-02-03T00:40:14.376Z,7.30
2023-02-03T00:43:06.887Z,5.20
2023-02-03T00:46:00.241Z,4.60
2023-02-03T00:48:53.247Z,6.90
2023-02-03T00:51:46.393Z,8.00
2023-02-03T00:54:39.431Z,7.80
2023-02-03T00:57:32.562Z,6.70
2023-02-03T01:00:26.401Z,4.40
2023-02-03T01:03:20.566Z,7.10
2023-02-03T01:06:15.863Z,5.40
2023-02-03T01:09:08.415Z,5.80
2023-02-03T01:12:01.605Z,6.10
2023-02-03T01:14:54.715Z,6.40
2023-02-03T01:17:47.800Z,7.80
2023-02-03T01:20:40.952Z,4.70
2023-02-03T01:23:35.621Z,8.20
2023-02-03T01:26:28.740Z,3.80
2023-02-03T01:29:21.752Z,4.60
2023-02-03T01:32:14.825Z,5.50
2023-02-03T01:35:09.017Z,7.80
2023-02-03T01:38:01.439Z,7.40
2023-02-03T01:40:54.507Z,5.30
2023-02-03T01:43:50.490Z,5.80
2023-02-03T01:46:45.735Z,6.40
2023-02-03T01:49:39.242Z,8.20
2023-02-03T01:52:32.261Z,5.80
2023-02-03T01:55:27.937Z,5.60
2023-02-03T01:58:24.781Z,6.30
2023-02-03T02:01:19.633Z,5.50
2023-02-03T02:04:13.030Z,9.60
2023-02-03T02:07:06.137Z,6.70
2023-02-03T02:09:59.468Z,7.70
2023-02-03T02:12:52.571Z,6.20
2023-02-03T02:15:51.930Z,6.50
2023-02-03T02:18:59.053Z,5.60
2023-02-03T02:22:12.985Z,8.20
2023-02-03T02:25:35.892Z,4.30
2023-02-03T02:28:51.585Z,5.20
2023-02-03T02:32:02.270Z,7.10
2023-02-03T02:35:02.561Z,5.00
2023-02-03T02:38:00.630Z,5.70
2023-02-03T02:40:55.892Z,5.00
2023-02-03T02:43:51.832Z,4.00
2023-02-03T02:46:46.914Z,3.60
2023-02-03T02:49:43.759Z,2.60
2023-02-03T02:52:38.333Z,2.70
2023-02-03T02:55:34.647Z,2.90
2023-02-03T02:58:28.520Z,3.10
2023-02-03T03:01:22.206Z,2.10
2023-02-03T03:04:17.169Z,5.00
2023-02-03T03:07:12.296Z,2.00
2023-02-03T03:10:08.654Z,1.70
2023-02-03T03:13:05.879Z,3.40
2023-02-03T03:15:58.948Z,2.10
2023-02-03T03:18:53.419Z,4.60
2023-02-03T03:21:48.921Z,2.40
2023-02-03T03:24:44.965Z,2.40
2023-02-03T03:27:39.252Z,2.30
2023-02-03T03:30:34.113Z,1.50
2023-02-03T03:33:26.732Z,2.70
2023-02-03T03:36:26.384Z,2.00
2023-02-03T03:39:21.779Z,2.00
2023-02-03T03:42:18.688Z,3.00
2023-02-03T03:45:15.296Z,2.50
2023-02-03T03:51:03.702Z,4.50
2023-02-03T03:53:56.851Z,1.40
2023-02-03T03:56:54.739Z,3.40
2023-02-03T03:59:49.393Z,3.40
2023-02-03T04:02:43.258Z,1.80
2023-02-03T04:05:36.144Z,2.00
2023-02-03T04:08:29.130Z,5.50
2023-02-03T04:11:39.610Z,3.10
2023-02-03T04:14:33.930Z,2.90
2023-02-03T04:17:26.401Z,2.10
2023-02-03T04:20:19.991Z,2.10
2023-02-03T04:23:12.491Z,2.10
2023-02-03T04:26:06.678Z,3.10
2023-02-03T04:28:59.162Z,2.70
2023-02-03T04:31:52.294Z,2.90
2023-02-03T04:34:45.478Z,5.60
2023-02-03T04:37:38.525Z,3.80
2023-02-03T04:40:33.994Z,6.40
2023-02-03T04:43:28.089Z,2.00
2023-02-03T04:46:21.255Z,4.60
2023-02-03T04:49:14.360Z,2.00
2023-02-03T04:52:08.881Z,3.30
2023-02-03T04:55:04.170Z,3.40
2023-02-03T04:58:00.300Z,4.00
2023-02-03T05:03:45.060Z,5.10
2023-02-03T05:06:38.137Z,6.20
2023-02-03T05:09:31.282Z,2.20
2023-02-03T05:12:24.474Z,6.80
2023-02-03T05:15:17.828Z,3.20
2023-02-03T05:18:10.482Z,5.80
2023-02-03T05:21:03.786Z,5.80
2023-02-03T05:23:57.333Z,5.60
2023-02-03T05:26:50.520Z,4.70
2023-02-03T05:29:43.708Z,5.40
2023-02-03T05:32:36.890Z,4.10
2023-02-03T05:35:30.235Z,2.90
2023-02-03T05:38:23.462Z,4.50
2023-02-03T05:41:34.858Z,2.80
2023-02-03T05:44:28.838Z,3.70
2023-02-03T05:47:21.304Z,4.30
2023-02-03T05:50:14.794Z,3.40
2023-02-03T05:53:08.567Z,5.80
2023-02-03T05:56:01.698Z,3.30
2023-02-03T05:58:54.841Z,4.30
2023-02-03T06:01:47.929Z,6.30
2023-02-03T06:04:43.128Z,7.50
2023-02-03T06:07:35.885Z,4.60
2023-02-03T06:10:29.406Z,5.20
2023-02-03T06:13:22.618Z,6.30
2023-02-03T06:16:16.124Z,7.00
2023-02-03T06:19:09.200Z,4.60
2023-02-03T06:22:02.362Z,6.50
2023-02-03T06:24:55.500Z,4.20
2023-02-03T06:27:48.696Z,3.30
2023-02-03T06:30:42.045Z,5.50
2023-02-03T06:33:35.892Z,3.80
2023-02-03T06:36:29.549Z,5.00
2023-02-03T06:39:22.810Z,4.70
2023-02-03T06:42:16.541Z,4.40
2023-02-03T06:45:12.181Z,4.20
2023-02-03T06:48:04.800Z,6.70
2023-02-03T06:50:57.929Z,6.90
2023-02-03T06:53:51.115Z,4.00
2023-02-03T06:56:45.448Z,5.80
2023-02-03T06:59:38.608Z,4.50
2023-02-03T07:02:31.801Z,3.90
2023-02-03T07:05:25.163Z,4.60
2023-02-03T07:08:18.458Z,4.30
2023-02-03T07:11:12.645Z,8.00
2023-02-03T07:14:05.984Z,5.40
2023-02-03T07:16:59.161Z,7.30
2023-02-03T07:19:52.339Z,7.90
2023-02-03T07:22:47.278Z,5.40
2023-02-03T07:25:40.794Z,4.40
2023-02-03T07:28:34.144Z,5.60
2023-02-03T07:31:27.470Z,5.90
2023-02-03T07:34:21.153Z,4.80
2023-02-03T07:37:14.029Z,5.30
2023-02-03T07:40:09.325Z,5.00
2023-02-03T07:43:02.373Z,4.90
2023-02-03T07:45:54.996Z,4.20
2023-02-03T07:48:48.088Z,3.60
2023-02-03T07:51:41.632Z,3.10
2023-02-03T07:54:34.919Z,5.10
2023-02-03T07:57:28.288Z,5.10
2023-02-03T08:00:23.752Z,3.30
2023-02-03T08:03:16.239Z,3.90
2023-02-03T08:06:11.892Z,7.00
2023-02-03T08:09:04.480Z,7.60
2023-02-03T08:11:58.655Z,7.20
2023-02-03T08:14:51.850Z,5.90
2023-02-03T08:17:45.029Z,4.60
2023-02-03T08:20:39.458Z,6.50
2023-02-03T08:23:33.201Z,7.40
2023-02-03T08:26:26.264Z,6.10
2023-02-03T08:29:19.680Z,5.90
2023-02-03T08:32:15.410Z,7.90
2023-02-03T08:35:09.364Z,6.30
2023-02-03T08:38:02.071Z,4.90
2023-02-03T08:40:55.411Z,6.10
2023-02-03T08:43:49.311Z,5.30
2023-02-03T08:46:44.249Z,5.80
2023-02-03T08:49:39.607Z,5.80
2023-02-03T08:52:32.210Z,7.30
2023-02-03T08:55:25.773Z,6.10
2023-02-03T08:58:19.101Z,5.00
2023-02-03T09:01:14.664Z,5.30
2023-02-03T09:04:10.126Z,6.50
2023-02-03T09:07:04.408Z,5.40
2023-02-03T09:09:57.919Z,4.30
2023-02-03T09:12:51.401Z,6.10
2023-02-03T09:15:43.998Z,3.80
2023-02-03T09:18:36.920Z,5.50
2023-02-03T09:21:35.827Z,5.20
2023-02-03T09:24:38.441Z,4.70
2023-02-03T09:27:31.622Z,6.20
2023-02-03T09:30:25.261Z,6.60
2023-02-03T09:33:18.658Z,3.70
2023-02-03T09:36:12.995Z,5.20
2023-02-03T09:39:05.646Z,6.00
2023-02-03T09:42:36.235Z,6.50
2023-02-03T09:45:31.895Z,3.00
2023-02-03T09:48:26.362Z,8.20
2023-02-03T09:51:23.719Z,5.70
2023-02-03T09:54:19.219Z,3.00
2023-02-03T09:57:20.422Z,6.00
2023-02-03T10:00:20.756Z,3.60
2023-02-03T10:03:22.979Z,2.40
2023-02-03T10:06:21.607Z,5.50
2023-02-03T10:09:30.185Z,6.40
2023-02-03T10:13:13.728Z,4.50
2023-02-03T10:16:24.776Z,3.50
2023-02-03T10:19:23.194Z,3.50
2023-02-03T10:22:22.866Z,2.10
2023-02-03T10:25:28.257Z,7.30
2023-02-03T10:28:22.621Z,6.60
2023-02-03T10:31:41.530Z,4.50
2023-02-03T10:34:34.513Z,5.90
2023-02-03T10:37:31.336Z,4.90
2023-02-03T10:40:29.377Z,6.40
2023-02-03T10:43:39.949Z,4.20
2023-02-03T10:46:35.662Z,3.80
2023-02-03T10:49:29.618Z,3.50
2023-02-03T10:52:35.711Z,3.70
2023-02-03T10:55:35.308Z,7.00
2023-02-03T10:58:35.244Z,6.70
2023-02-03T11:01:39.399Z,6.00
2023-02-03T11:04:34.483Z,8.60
2023-02-03T11:07:32.070Z,4.90
2023-02-03T11:10:38.704Z,5.60
2023-02-03T11:13:31.705Z,4.00
2023-02-03T11:16:25.600Z,5.50
2023-02-03T11:19:20.736Z,5.00
2023-02-03T11:22:13.264Z,5.00
2023-02-03T11:25:17.255Z,5.40
2023-02-03T11:28:14.803Z,5.10
2023-02-03T11:31:15.263Z,5.60
2023-02-03T11:34:16.088Z,7.70
2023-02-03T11:37:32.794Z,6.50
2023-02-03T11:40:35.834Z,4.90
2023-02-03T11:43:30.246Z,5.30
2023-02-03T11:46:23.651Z,5.30
2023-02-03T11:49:30.862Z,5.00
2023-02-03T11:52:51.469Z,4.30
2023-02-03T11:56:11.677Z,4.10
2023-02-03T11:59:44.438Z,6.10
2023-02-03T12:03:21.310Z,6.60
2023-02-03T12:06:28.164Z,4.00
2023-02-03T12:09:28.695Z,4.10
2023-02-03T12:12:37.686Z,4.60
2023-02-03T12:15:42.428Z,6.90
2023-02-03T12:18:48.859Z,4.20
2023-02-03T12:21:52.299Z,3.90
2023-02-03T12:24:53.864Z,3.70
2023-02-03T12:27:54.083Z,4.30
2023-02-03T12:30:50.650Z,5.70
2023-02-03T12:33:45.981Z,6.10
2023-02-03T12:36:41.974Z,8.10
2023-02-03T12:42:30.727Z,7.00
2023-02-03T12:45:24.940Z,4.80
2023-02-03T12:48:19.722Z,6.60
2023-02-03T12:51:15.257Z,6.60
2023-02-03T12:54:24.547Z,5.20
2023-02-03T12:57:25.758Z,7.60
2023-02-03T13:00:28.736Z,5.90
2023-02-03T13:03:26.135Z,5.60
2023-02-03T13:06:24.188Z,4.20
2023-02-03T13:09:29.554Z,3.20
2023-02-03T13:12:28.620Z,5.30
2023-02-03T13:15:28.620Z,8.50
2023-02-03T13:18:28.928Z,4.70
2023-02-03T13:21:23.732Z,3.70
2023-02-03T13:24:17.043Z,3.60
2023-02-03T13:27:45.723Z,1.50
2023-02-03T13:30:56.751Z,3.20
2023-02-03T13:34:14.407Z,3.70
2023-02-03T13:37:24.895Z,2.20
2023-02-03T13:40:24.764Z,3.40
2023-02-03T13:43:36.017Z,2.00
2023-02-03T13:46:32.312Z,1.00
2023-02-03T13:49:28.331Z,1.40
2023-02-03T13:55:39.819Z,0.90
2023-02-03T13:58:33.189Z,1.20
2023-02-03T14:01:36.436Z,3.10
2023-02-03T14:04:55.946Z,1.40
2023-02-03T14:07:48.578Z,0.90
2023-02-03T14:10:41.869Z,1.00
2023-02-03T14:13:35.140Z,2.00
2023-02-03T14:16:29.032Z,1.70
2023-02-03T14:19:57.811Z,3.50
2023-02-03T14:22:53.110Z,2.00
2023-02-03T14:25:49.922Z,3.10
2023-02-03T14:28:44.923Z,1.00
2023-02-03T14:31:56.752Z,1.60
2023-02-03T14:34:50.195Z,1.00
2023-02-03T14:37:53.440Z,1.60
2023-02-03T14:40:48.038Z,3.50
2023-02-03T14:43:42.326Z,3.60
2023-02-03T14:46:54.054Z,2.10
2023-02-03T14:50:03.464Z,1.60
2023-02-03T14:53:45.137Z,2.00
2023-02-03T14:57:05.050Z,1.60
2023-02-03T15:00:02.348Z,3.00
2023-02-03T15:03:25.007Z,3.30
2023-02-03T15:06:43.136Z,12.20
2023-02-03T15:09:39.816Z,14.50
2023-02-03T15:12:38.689Z,13.00
2023-02-03T15:15:33.543Z,11.70
2023-02-03T15:18:32.090Z,4.10
2023-02-03T15:21:24.696Z,3.40
2023-02-03T15:24:22.281Z,2.90
2023-02-03T15:27:25.376Z,1.80
2023-02-03T15:30:25.714Z,3.60
2023-02-03T15:33:21.829Z,2.70
2023-02-03T15:36:18.482Z,4.10
2023-02-03T15:39:30.203Z,3.90
2023-02-03T15:42:26.229Z,2.20
2023-02-03T15:51:13.084Z,1.80
2023-02-03T15:54:10.262Z,1.90
2023-02-03T15:57:08.834Z,2.30
2023-02-03T16:00:03.614Z,2.50
2023-02-03T16:02:58.366Z,1.10
2023-02-03T16:05:51.471Z,1.40
2023-02-03T16:08:48.090Z,1.30
2023-02-03T16:11:41.677Z,2.10
2023-02-03T16:14:37.933Z,3.60
2023-02-03T16:17:33.040Z,1.90
2023-02-03T16:20:29.294Z,2.00
2023-02-03T16:23:27.823Z,0.90
2023-02-03T16:26:26.167Z,7.30
2023-02-03T16:29:36.560Z,2.20
2023-02-03T16:32:46.912Z,1.00
2023-02-03T16:35:57.423Z,2.20
2023-02-03T16:39:08.826Z,3.20
2023-02-03T16:42:25.864Z,1.10
2023-02-03T16:45:37.604Z,2.00
2023-02-03T16:48:48.432Z,2.90
2023-02-03T16:51:43.849Z,1.60
2023-02-03T16:54:36.350Z,2.40
2023-02-03T16:57:29.328Z,2.90
2023-02-03T17:00:23.864Z,2.70
2023-02-03T17:03:17.854Z,4.00
2023-02-03T17:06:11.804Z,3.20
2023-02-03T17:09:04.805Z,4.20
2023-02-03T17:11:58.379Z,2.20
2023-02-03T17:14:51.051Z,2.10
2023-02-03T17:17:43.553Z,2.50
2023-02-03T17:20:36.854Z,3.10
2023-02-03T17:23:29.325Z,2.60
2023-02-03T17:26:22.301Z,2.10
2023-02-03T17:29:15.599Z,2.50
2023-02-03T17:32:08.309Z,1.90
2023-02-03T17:35:01.096Z,4.00
2023-02-03T17:37:54.523Z,3.50
2023-02-03T17:53:31.759Z,2.70
2023-02-03T17:56:26.039Z,2.80
2023-02-03T17:59:18.703Z,8.10
2023-02-03T18:02:13.454Z,6.50
2023-02-03T18:05:07.722Z,4.50
2023-02-03T18:08:05.900Z,4.30
2023-02-03T18:11:05.411Z,4.10
2023-02-03T18:13:58.346Z,1.80
2023-02-03T18:16:50.987Z,2.70
2023-02-03T18:19:46.795Z,2.80
2023-02-03T18:22:42.051Z,3.70
2023-02-03T18:25:37.233Z,1.80
2023-02-03T18:28:30.025Z,2.90
2023-02-03T18:31:22.631Z,3.20
2023-02-03T18:34:15.563Z,5.50
2023-02-03T18:37:08.555Z,1.70
2023-02-03T18:40:01.336Z,1.90
2023-02-03T18:42:56.114Z,2.60
2023-02-03T18:45:48.705Z,1.90
2023-02-03T18:48:41.281Z,2.60
2023-02-03T18:51:33.825Z,1.70
2023-02-03T18:54:29.128Z,2.70
2023-02-03T18:57:22.749Z,3.60
2023-02-03T19:00:17.976Z,2.00
2023-02-03T19:03:10.723Z,2.10
2023-02-03T19:06:03.707Z,2.30
2023-02-03T19:08:56.740Z,1.80
2023-02-03T19:11:49.551Z,2.00
2023-02-03T19:14:42.402Z,1.40
2023-02-03T19:17:35.094Z,5.00
2023-02-03T19:20:28.025Z,2.20
2023-02-03T19:23:23.894Z,2.80
2023-02-03T19:29:07.952Z,25.00
2023-02-03T19:32:00.675Z,2.10
2023-02-03T19:34:53.444Z,2.90
2023-02-03T19:37:45.974Z,1.80
2023-02-03T19:40:38.676Z,1.90
2023-02-03T19:43:31.334Z,1.60
2023-02-03T19:46:25.577Z,2.50
2023-02-03T19:49:18.396Z,2.00
2023-02-03T19:52:12.102Z,2.10
2023-02-03T19:55:05.167Z,4.30
2023-02-03T19:57:59.382Z,3.00
2023-02-03T20:00:52.363Z,3.10
2023-02-03T20:03:45.316Z,4.10
2023-02-03T20:06:38.066Z,4.00
2023-02-03T20:09:30.927Z,3.90
2023-02-03T20:12:23.534Z,2.80
2023-02-03T20:15:16.098Z,4.40
2023-02-03T20:18:10.674Z,2.90
2023-02-03T20:21:03.501Z,3.60
2023-02-03T20:23:56.477Z,2.80
2023-02-03T20:26:49.220Z,2.30
2023-02-03T20:29:42.367Z,2.10
2023-02-03T20:32:35.222Z,3.90
2023-02-03T20:35:28.341Z,3.20
2023-02-03T20:38:21.412Z,2.30
2023-02-03T20:41:14.946Z,3.00
2023-02-03T20:44:10.079Z,4.40
2023-02-03T20:47:03.061Z,11.20
2023-02-03T20:49:56.363Z,13.70
2023-02-03T20:52:49.377Z,20.20
2023-02-03T20:55:42.963Z,16.40
2023-02-03T20:58:37.295Z,19.90
2023-02-03T21:01:30.264Z,21.50
2023-02-03T21:04:40.547Z,20.10
2023-02-03T21:07:33.893Z,18.60
2023-02-03T21:10:27.730Z,29.20
2023-02-03T21:13:25.791Z,18.80
2023-02-03T21:16:21.166Z,16.90
2023-02-03T21:19:17.128Z,11.00
2023-02-03T21:22:18.371Z,5.30
2023-02-03T21:25:29.709Z,4.60
2023-02-03T21:28:27.359Z,3.90
2023-02-03T21:31:25.284Z,5.20
2023-02-03T21:34:29.841Z,4.70
2023-02-03T21:37:42.414Z,5.50
2023-02-03T21:40:35.559Z,3.40
2023-02-03T21:43:29.381Z,4.70
2023-02-03T21:46:25.632Z,4.90
2023-02-03T21:49:19.603Z,3.80
2023-02-03T21:52:15.284Z,4.40
2023-02-03T21:55:12.469Z,4.50
2023-02-03T21:58:05.071Z,11.20
2023-02-03T22:00:59.880Z,8.80
2023-02-03T22:03:54.134Z,6.00
2023-02-03T22:06:49.505Z,4.30
2023-02-03T22:09:42.590Z,5.70
2023-02-03T22:12:36.796Z,4.80
2023-02-03T22:15:30.079Z,6.00
2023-02-03T22:18:23.356Z,5.00
2023-02-03T22:21:16.981Z,4.70
2023-02-03T22:24:10.674Z,5.30
2023-02-03T22:27:04.230Z,4.00
2023-02-03T22:29:57.007Z,5.20
2023-02-03T22:32:50.198Z,5.30
2023-02-03T22:35:44.464Z,4.60
2023-02-03T22:38:37.165Z,4.20
2023-02-03T22:41:31.387Z,4.60
2023-02-03T22:44:24.675Z,3.70
2023-02-03T22:47:18.515Z,5.10
2023-02-03T22:50:13.261Z,5.00
2023-02-03T22:53:07.097Z,6.50
2023-02-03T22:56:00.374Z,4.50
2023-02-03T22:58:53.517Z,5.60
2023-02-03T23:01:47.700Z,4.70
2023-02-03T23:04:43.671Z,4.80
2023-02-03T23:07:37.393Z,7.20
2023-02-03T23:10:31.875Z,4.90
2023-02-03T23:13:25.268Z,5.10
2023-02-03T23:16:18.398Z,5.40
2023-02-03T23:19:11.039Z,5.10
2023-02-03T23:22:04.168Z,5.20
2023-02-03T23:24:57.312Z,5.80
2023-02-03T23:27:50.499Z,6.20
2023-02-03T23:30:44.119Z,5.00
2023-02-03T23:33:37.499Z,4.20
2023-02-03T23:36:30.698Z,5.80
2023-02-03T23:39:23.755Z,6.70
2023-02-03T23:42:16.976Z,4.20
2023-02-03T23:45:12.797Z,5.10
2023-02-03T23:48:06.135Z,3.90
2023-02-03T23:50:59.177Z,5.20
2023-02-03T23:53:52.284Z,4.10
2023-02-03T23:56:45.380Z,5.20
2023-02-03T23:59:38.695Z,6.30
